Time;durP1;ratioP1;P1;durP2;ratioP2;P2;SDS_P1;SDS_P2;PMS_P1;PMS_P2;Temp;Humidity;BMP_temperature;BMP_pressure;BME280_temperature;BME280_humidity;BME280_pressure;Samples;Min_cycle;Max_cycle;Signal;HPM_P1;HPM_P2
2022/10/22 00:00:15;;;;;;;6.97;3.55;;;;;;;14.00;89.36;100823.06;6187547;23;20067;-84
2022/10/22 00:02:42;;;;;;;7.53;3.53;;;;;;;13.99;89.10;100827.50;6188197;23;20001;-85
2022/10/22 00:05:07;;;;;;;9.13;3.33;;;;;;;14.01;90.32;100822.19;6161114;23;20013;-85
2022/10/22 00:07:33;;;;;;;7.47;3.72;;;;;;;13.96;90.39;100818.66;6186062;23;20339;-85
2022/10/22 00:09:58;;;;;;;8.35;3.67;;;;;;;13.96;90.43;100818.66;6186224;23;20331;-85
2022/10/22 00:12:24;;;;;;;8.10;3.95;;;;;;;13.95;90.90;100823.09;6187191;23;20392;-85
2022/10/22 00:14:50;;;;;;;10.55;3.80;;;;;;;14.05;90.26;100826.63;6187493;23;20052;-85
2022/10/22 00:17:15;;;;;;;5.72;3.67;;;;;;;14.03;91.04;100817.75;6161462;23;20009;-85
2022/10/22 00:19:41;;;;;;;6.22;3.65;;;;;;;13.98;90.63;100806.25;6161508;23;20005;-85
2022/10/22 00:22:08;;;;;;;8.55;3.75;;;;;;;14.03;90.56;100820.41;6185868;23;20389;-85
2022/10/22 00:24:35;;;;;;;8.65;3.60;;;;;;;13.96;91.25;100819.56;6187698;23;20408;-84
2022/10/22 00:27:01;;;;;;;12.32;3.97;;;;;;;13.95;91.16;100823.09;6186921;23;20005;-85
2022/10/22 00:29:26;;;;;;;7.30;3.75;;;;;;;14.00;91.42;100821.31;6187350;23;20387;-85
2022/10/22 00:31:54;;;;;;;11.60;3.95;;;;;;;13.97;90.94;100820.44;6161284;23;20085;-84
2022/10/22 00:34:21;;;;;;;7.00;3.92;;;;;;;13.99;91.29;100818.66;6162632;23;20075;-84
2022/10/22 00:36:50;;;;;;;6.72;3.83;;;;;;;14.03;90.67;100821.28;6186893;23;20336;-85
2022/10/22 00:39:19;;;;;;;8.27;4.10;;;;;;;14.00;90.83;100818.66;6185728;23;20043;-84
2022/10/22 00:41:46;;;;;;;6.57;3.88;;;;;;;14.01;91.11;100825.72;6187275;23;20108;-84
2022/10/22 00:44:49;;;;;;;9.82;3.72;;;;;;;13.96;91.06;100824.88;6186887;23;20009;-84
2022/10/22 00:47:17;;;;;;;8.65;3.72;;;;;;;13.95;91.25;100817.78;6187842;23;20004;-84
2022/10/22 00:49:43;;;;;;;7.20;3.55;;;;;;;14.00;91.67;100828.38;6185383;23;20051;-85
2022/10/22 00:52:10;;;;;;;17.55;4.57;;;;;;;13.90;92.73;100821.34;6185222;23;20016;-85
2022/10/22 00:54:37;;;;;;;7.80;3.80;;;;;;;13.86;92.30;100819.56;6185641;23;20009;-84
2022/10/22 00:57:03;;;;;;;8.40;4.03;;;;;;;13.84;92.09;100821.38;6187076;23;20005;-85
2022/10/22 00:59:28;;;;;;;7.13;4.45;;;;;;;13.80;92.62;100825.81;6160568;23;20016;-84
2022/10/22 01:01:54;;;;;;;7.15;4.10;;;;;;;13.78;92.81;100822.25;6186904;23;20032;-84
2022/10/22 01:04:20;;;;;;;7.75;3.78;;;;;;;13.68;92.82;100829.38;6185479;23;20019;-85
2022/10/22 01:06:46;;;;;;;10.65;4.30;;;;;;;13.62;93.55;100820.50;6160613;23;20013;-85
2022/10/22 01:09:49;;;;;;;12.88;4.38;;;;;;;13.65;94.16;100817.88;6210360;23;20503;-85
2022/10/22 01:12:33;;;;;;;13.15;4.47;;;;;;;13.67;93.61;100816.97;6185360;23;20027;-84
2022/10/22 01:15:10;;;;;;;9.15;4.03;;;;;;;13.62;93.83;100818.78;6186922;23;20076;-85
2022/10/22 01:17:57;;;;;;;13.45;4.30;;;;;;;13.55;94.55;100809.03;6187058;23;20008;-85
2022/10/22 01:20:34;;;;;;;11.70;4.90;;;;;;;13.55;95.71;100822.31;6186829;23;20005;-85
2022/10/22 01:23:20;;;;;;;10.02;4.28;;;;;;;13.51;96.45;100824.09;6185145;23;20015;-84
2022/10/22 01:26:21;;;;;;;7.03;4.10;;;;;;;13.50;96.67;100805.50;6186876;23;20005;-85
2022/10/22 01:29:01;;;;;;;12.20;4.30;;;;;;;13.53;96.55;100811.72;6176358;23;20023;-85
2022/10/22 01:31:32;;;;;;;12.32;4.40;;;;;;;13.53;96.93;100813.44;6187147;23;20036;-85
2022/10/22 01:34:01;;;;;;;11.68;4.45;;;;;;;13.54;96.48;100820.56;6186219;23;20001;-85
2022/10/22 01:36:29;;;;;;;10.75;4.43;;;;;;;13.55;97.36;100813.47;6186714;23;20050;-85
2022/10/22 01:38:57;;;;;;;10.60;4.47;;;;;;;13.53;97.13;100811.72;6186500;23;20005;-85
2022/10/22 01:41:23;;;;;;;10.38;4.55;;;;;;;13.49;98.16;100814.38;6185403;23;20015;-85
2022/10/22 01:43:51;;;;;;;12.88;4.25;;;;;;;13.49;97.89;100812.59;6160476;23;20096;-85
2022/10/22 01:46:19;;;;;;;11.85;4.90;;;;;;;13.49;98.22;100809.94;6186512;23;20450;-85
2022/10/22 01:48:55;;;;;;;14.27;4.80;;;;;;;13.49;97.80;100806.41;6186153;23;20439;-85
2022/10/22 01:51:39;;;;;;;9.45;5.13;;;;;;;13.45;98.45;100800.22;6186208;23;20324;-85
2022/10/22 01:54:32;;;;;;;8.88;4.50;;;;;;;13.50;98.53;100814.38;6186799;23;20085;-88
2022/10/22 01:57:28;;;;;;;14.60;5.60;;;;;;;13.50;97.83;100814.38;6186084;23;20001;-85
2022/10/22 02:00:01;;;;;;;12.48;4.50;;;;;;;13.50;97.44;100813.47;6186884;23;20138;-84
2022/10/22 02:03:09;;;;;;;8.85;4.78;;;;;;;13.45;97.91;100818.81;6186438;23;20309;-85
2022/10/22 02:05:44;;;;;;;9.23;4.78;;;;;;;13.39;98.33;100813.47;6095186;23;20374;-85
2022/10/22 02:08:17;;;;;;;11.95;4.57;;;;;;;13.40;98.11;100817.00;6095800;23;20049;-85
2022/10/22 02:10:45;;;;;;;15.18;5.90;;;;;;;13.39;98.30;100812.59;6148529;23;20005;-85
2022/10/22 02:13:16;;;;;;;9.27;4.45;;;;;;;13.37;98.71;100820.56;6186784;23;20032;-85
2022/10/22 02:15:44;;;;;;;9.50;4.63;;;;;;;13.32;98.74;100814.41;6186353;23;20076;-85
2022/10/22 02:18:10;;;;;;;10.10;4.22;;;;;;;13.28;98.59;100816.16;6184612;23;20005;-85
2022/10/22 02:20:39;;;;;;;10.73;4.18;;;;;;;13.34;97.97;100822.34;6186609;23;20081;-85
2022/10/22 02:23:05;;;;;;;9.65;4.88;;;;;;;13.30;98.48;100808.19;6159875;23;20005;-85
2022/10/22 02:25:35;;;;;;;11.48;5.05;;;;;;;13.32;98.89;100818.78;6186124;23;20416;-85
2022/10/22 02:28:21;;;;;;;8.55;4.63;;;;;;;13.30;98.87;100821.47;6186995;23;20005;-85
2022/10/22 02:30:53;;;;;;;9.80;4.43;;;;;;;13.32;99.21;100822.34;6186256;23;20071;-85
2022/10/22 02:33:24;;;;;;;15.43;4.60;;;;;;;13.31;99.13;100817.03;6185957;23;20088;-85
2022/10/22 02:35:51;;;;;;;10.75;4.72;;;;;;;13.32;99.11;100813.47;6179706;23;20017;-85
2022/10/22 02:38:20;;;;;;;8.85;4.50;;;;;;;13.31;99.03;100814.38;6185799;23;20339;-85
2022/10/22 02:40:46;;;;;;;11.85;4.50;;;;;;;13.32;98.92;100810.84;6184784;23;20321;-85
2022/10/22 02:43:11;;;;;;;9.65;4.50;;;;;;;13.31;98.73;100817.03;6186182;23;20016;-85
2022/10/22 02:45:37;;;;;;;10.57;4.63;;;;;;;13.30;98.35;100823.22;6184294;23;20144;-85
2022/10/22 02:48:02;;;;;;;12.73;4.65;;;;;;;13.29;98.98;100817.03;6184424;23;20005;-85
2022/10/22 02:50:28;;;;;;;12.55;4.70;;;;;;;13.25;99.03;100832.09;6185933;23;20027;-85
2022/10/22 02:52:53;;;;;;;11.10;4.05;;;;;;;13.24;99.36;100832.97;6186169;23;20088;-85
2022/10/22 02:55:21;;;;;;;10.27;4.63;;;;;;;13.25;99.54;100831.19;6209229;23;20009;-85
2022/10/22 02:57:47;;;;;;;11.10;4.78;;;;;;;13.25;98.94;100825.91;6159778;23;20088;-85
2022/10/22 03:00:13;;;;;;;12.40;4.45;;;;;;;13.19;99.42;100817.88;6159389;23;20037;-86
2022/10/22 03:02:38;;;;;;;8.38;4.28;;;;;;;13.26;98.78;100828.53;6184599;23;20006;-85
2022/10/22 03:05:05;;;;;;;9.15;5.05;;;;;;;13.24;99.24;100832.97;6185805;23;20012;-85
2022/10/22 03:07:30;;;;;;;10.43;4.38;;;;;;;13.21;98.93;100832.94;6186876;23;20009;-85
2022/10/22 03:09:55;;;;;;;12.32;4.25;;;;;;;13.19;99.04;100837.38;6186641;23;20454;-84
2022/10/22 03:12:21;;;;;;;8.73;4.53;;;;;;;13.13;98.74;100833.81;6161689;23;20424;-84
2022/10/22 03:14:46;;;;;;;13.15;4.40;;;;;;;13.15;99.12;100846.22;6187572;23;20009;-85
2022/10/22 03:17:12;;;;;;;10.82;4.30;;;;;;;13.16;98.94;100833.81;6186587;23;20087;-85
2022/10/22 03:19:40;;;;;;;8.32;4.10;;;;;;;13.17;98.94;100831.16;6187974;23;20009;-85
2022/10/22 03:22:12;;;;;;;9.80;4.32;;;;;;;13.14;99.47;100831.16;6186652;23;20009;-85
2022/10/22 03:24:41;;;;;;;9.63;4.40;;;;;;;13.16;99.56;100833.81;6188020;23;20070;-84
2022/10/22 03:27:08;;;;;;;13.40;4.55;;;;;;;13.14;99.63;100843.53;6187572;23;20016;-85
2022/10/22 03:29:37;;;;;;;10.40;4.18;;;;;;;13.11;99.87;100844.44;6187606;23;20005;-85
2022/10/22 03:32:03;;;;;;;8.40;4.22;;;;;;;13.09;100.00;100845.31;6187663;23;20301;-84
2022/10/22 03:34:28;;;;;;;13.18;4.68;;;;;;;13.06;100.00;100843.56;6187414;23;20020;-84
2022/10/22 03:36:57;;;;;;;10.35;4.45;;;;;;;13.07;100.00;100857.72;6188118;23;20301;-85
2022/10/22 03:39:23;;;;;;;10.70;4.57;;;;;;;13.08;100.00;100860.34;6188281;23;20005;-85
2022/10/22 03:41:51;;;;;;;11.73;4.50;;;;;;;13.10;100.00;100858.56;6161500;23;20019;-85
2022/10/22 03:44:17;;;;;;;13.88;4.47;;;;;;;13.14;100.00;100862.09;6187669;23;20009;-85
2022/10/22 03:46:43;;;;;;;10.82;4.32;;;;;;;13.17;100.00;100870.06;6187398;23;20009;-84
2022/10/22 03:49:08;;;;;;;15.20;4.63;;;;;;;13.18;100.00;100862.09;6187726;23;20019;-84
2022/10/22 03:51:34;;;;;;;15.02;4.60;;;;;;;13.14;100.00;100865.66;6161618;23;20369;-84
2022/10/22 03:54:00;;;;;;;13.60;5.00;;;;;;;13.17;100.00;100865.66;6187968;23;20013;-85
2022/10/22 03:56:26;;;;;;;12.15;4.90;;;;;;;13.20;100.00;100880.69;6187585;23;20063;-84
2022/10/22 03:58:55;;;;;;;14.10;5.50;;;;;;;13.20;100.00;100875.41;6185954;23;20478;-85
2022/10/22 04:01:20;;;;;;;11.70;5.65;;;;;;;13.18;100.00;100871.84;6187506;23;20367;-84
2022/10/22 04:03:46;;;;;;;12.13;5.00;;;;;;;13.21;100.00;100875.38;6187220;23;20471;-85
2022/10/22 04:06:12;;;;;;;11.20;5.00;;;;;;;13.20;100.00;100870.97;6161759;23;20087;-85
2022/10/22 04:08:39;;;;;;;10.68;4.90;;;;;;;13.20;100.00;100872.75;6187545;23;20016;-85
2022/10/22 04:11:04;;;;;;;10.10;5.07;;;;;;;13.18;100.00;100877.16;6187614;23;20032;-85
2022/10/22 04:13:30;;;;;;;10.60;5.30;;;;;;;13.18;100.00;100875.38;6187386;23;20010;-85
2022/10/22 04:15:55;;;;;;;12.05;5.05;;;;;;;13.21;100.00;100879.81;6187423;23;20005;-84
2022/10/22 04:18:22;;;;;;;15.63;5.28;;;;;;;13.20;100.00;100884.25;6160411;23;20076;-85
2022/10/22 04:20:47;;;;;;;14.30;5.03;;;;;;;13.22;100.00;100884.22;6185673;23;20005;-85
2022/10/22 04:23:13;;;;;;;14.43;5.28;;;;;;;13.23;100.00;100886.94;6187387;23;20036;-85
2022/10/22 04:25:39;;;;;;;17.70;5.25;;;;;;;13.24;100.00;100883.38;6187023;23;20032;-85
2022/10/22 04:28:08;;;;;;;12.10;4.97;;;;;;;13.25;100.00;100881.63;6187893;23;20015;-84
2022/10/22 04:30:34;;;;;;;16.25;5.20;;;;;;;13.27;100.00;100893.09;6185891;23;20526;-84
2022/10/22 04:33:00;;;;;;;16.70;5.10;;;;;;;13.24;100.00;100888.69;6161275;23;20005;-84
2022/10/22 04:35:25;;;;;;;13.02;4.70;;;;;;;13.28;100.00;100881.63;6187181;23;20076;-84
2022/10/22 04:37:51;;;;;;;12.15;4.47;;;;;;;13.24;100.00;100880.75;6187026;23;20009;-86
2022/10/22 04:40:16;;;;;;;15.27;5.03;;;;;;;13.28;100.00;100886.94;6160944;23;20013;-84
2022/10/22 04:42:41;;;;;;;14.95;5.03;;;;;;;13.28;100.00;100889.59;6187256;23;20494;-84
2022/10/22 04:45:07;;;;;;;13.32;4.88;;;;;;;13.28;100.00;100887.81;6185539;23;20009;-84
2022/10/22 04:47:33;;;;;;;17.30;5.85;;;;;;;13.26;100.00;100881.59;6185047;23;20056;-84
2022/10/22 04:49:58;;;;;;;11.55;4.90;;;;;;;13.30;100.00;100886.94;6160847;23;20013;-85
2022/10/22 04:52:23;;;;;;;13.68;4.97;;;;;;;13.31;100.00;100896.66;6135870;23;20077;-85
2022/10/22 04:54:49;;;;;;;13.35;5.10;;;;;;;13.28;100.00;100889.59;6187082;23;20424;-85
2022/10/22 04:57:14;;;;;;;12.95;4.80;;;;;;;13.32;100.00;100893.09;6160870;23;20328;-85
2022/10/22 04:59:40;;;;;;;14.15;5.43;;;;;;;13.28;100.00;100894.91;6160594;23;20032;-85
2022/10/22 05:02:05;;;;;;;11.38;5.43;;;;;;;13.29;100.00;100901.97;6186982;23;20005;-85
2022/10/22 05:04:31;;;;;;;9.57;4.72;;;;;;;13.27;100.00;100901.06;6187059;23;20015;-85
2022/10/22 05:06:56;;;;;;;8.70;4.63;;;;;;;13.30;100.00;100908.16;6187348;23;20016;-85
2022/10/22 05:09:21;;;;;;;10.35;4.90;;;;;;;13.25;100.00;100902.84;6185109;23;20387;-84
2022/10/22 05:11:49;;;;;;;11.32;4.65;;;;;;;13.30;100.00;100903.72;6186936;23;20014;-85
2022/10/22 05:14:18;;;;;;;13.80;4.50;;;;;;;13.29;100.00;100904.63;6186883;23;20009;-85
2022/10/22 05:16:46;;;;;;;8.95;4.20;;;;;;;13.32;100.00;100901.06;6186842;23;20016;-84
2022/10/22 05:19:35;;;;;;;11.95;4.07;;;;;;;13.33;100.00;100903.75;6187022;23;20005;-85
2022/10/22 05:22:02;;;;;;;8.27;3.42;;;;;;;13.35;100.00;100907.25;6159556;23;20037;-85
2022/10/22 05:24:31;;;;;;;12.00;3.70;;;;;;;13.36;100.00;100903.75;6186772;23;20007;-84
2022/10/22 05:26:58;;;;;;;10.60;3.92;;;;;;;13.39;100.00;100917.00;6187353;23;20076;-85
2022/10/22 05:29:25;;;;;;;7.97;3.80;;;;;;;13.41;100.00;100912.59;6160094;23;20479;-84
2022/10/22 05:31:50;;;;;;;14.07;5.03;;;;;;;13.36;100.00;100906.41;6186656;23;20012;-85
2022/10/22 05:34:16;;;;;;;12.82;3.78;;;;;;;13.45;100.00;100918.78;6185609;23;20013;-85
2022/10/22 05:36:42;;;;;;;10.88;4.20;;;;;;;13.45;100.00;100917.00;6185491;23;20064;-85
2022/10/22 05:39:08;;;;;;;16.67;4.20;;;;;;;13.43;100.00;100909.94;6186941;23;20012;-85
2022/10/22 05:41:37;;;;;;;10.90;4.15;;;;;;;13.46;100.00;100912.59;6210260;23;20427;-85
2022/10/22 05:44:03;;;;;;;13.68;4.07;;;;;;;13.46;100.00;100915.25;6186537;23;20051;-84
2022/10/22 05:46:33;;;;;;;13.25;4.28;;;;;;;13.46;100.00;100913.47;6186193;23;20332;-84
2022/10/22 05:49:01;;;;;;;14.45;4.32;;;;;;;13.45;100.00;100924.97;6186493;23;20011;-86
2022/10/22 05:51:29;;;;;;;8.38;4.07;;;;;;;13.44;100.00;100930.28;6186157;23;20340;-85
2022/10/22 05:53:58;;;;;;;13.70;4.43;;;;;;;13.42;100.00;100926.75;6186594;23;20063;-85
2022/10/22 05:56:24;;;;;;;16.70;4.22;;;;;;;13.38;100.00;100931.16;6186505;23;20012;-87
2022/10/22 05:58:50;;;;;;;14.43;4.35;;;;;;;13.39;100.00;100932.91;6184783;23;20420;-84
2022/10/22 06:01:19;;;;;;;14.80;4.35;;;;;;;13.34;100.00;100929.38;6185067;23;20063;-85
2022/10/22 06:03:45;;;;;;;12.40;3.92;;;;;;;13.35;100.00;100938.22;6186601;23;20016;-85
2022/10/22 06:06:25;;;;;;;13.15;3.90;;;;;;;13.35;100.00;100938.22;6159789;23;20059;-85
2022/10/22 06:08:53;;;;;;;13.52;3.92;;;;;;;13.35;100.00;100951.50;6184958;23;20424;-84
2022/10/22 06:11:20;;;;;;;14.52;4.05;;;;;;;13.32;100.00;100957.72;6184643;23;20020;-84
2022/10/22 06:13:47;;;;;;;13.80;3.97;;;;;;;13.31;100.00;100950.59;6187113;23;20001;-86
2022/10/22 06:16:12;;;;;;;16.00;4.50;;;;;;;13.30;100.00;100955.94;6186033;23;20396;-87
2022/10/22 06:18:38;;;;;;;13.10;4.10;;;;;;;13.28;100.00;100967.44;6186328;23;20005;-86
2022/10/22 06:21:11;;;;;;;16.70;4.40;;;;;;;13.28;100.00;100969.19;6159636;23;20013;-87
2022/10/22 06:23:38;;;;;;;20.60;5.10;;;;;;;13.26;100.00;100966.53;6186944;23;20031;-86
2022/10/22 06:26:04;;;;;;;12.95;4.25;;;;;;;13.26;100.00;100970.94;6185956;23;20005;-86
2022/10/22 06:28:29;;;;;;;14.63;4.25;;;;;;;13.25;100.00;100977.16;6186135;23;20021;-86
2022/10/22 06:30:57;;;;;;;18.13;4.43;;;;;;;13.26;100.00;100978.91;6184647;23;20013;-83
2022/10/22 06:33:23;;;;;;;17.33;4.18;;;;;;;13.29;100.00;100989.53;6186640;23;20009;-84
2022/10/22 06:35:51;;;;;;;14.50;4.28;;;;;;;13.30;100.00;100991.31;6186908;23;20016;-84
2022/10/22 06:38:20;;;;;;;18.13;4.60;;;;;;;13.31;100.00;100993.06;6160528;23;20013;-84
2022/10/22 06:40:45;;;;;;;14.15;4.07;;;;;;;13.34;100.00;100992.19;6186585;23;20005;-85
2022/10/22 06:43:12;;;;;;;15.90;4.60;;;;;;;13.35;100.00;101001.94;6187461;23;20012;-84
2022/10/22 06:45:38;;;;;;;14.23;4.13;;;;;;;13.34;100.00;101001.03;6188093;23;20093;-84
2022/10/22 06:48:04;;;;;;;16.83;4.22;;;;;;;13.35;100.00;101004.59;6161918;23;20008;-84
2022/10/22 06:50:30;;;;;;;15.60;4.20;;;;;;;13.38;100.00;101015.22;6161617;23;20006;-84
2022/10/22 06:52:56;;;;;;;16.08;4.20;;;;;;;13.38;100.00;101017.88;6162294;23;20036;-84
2022/10/22 06:55:21;;;;;;;11.95;4.10;;;;;;;13.38;100.00;101024.06;6188568;23;20005;-84
2022/10/22 06:57:47;;;;;;;13.20;4.47;;;;;;;13.39;100.00;101023.16;6188782;23;20367;-84
2022/10/22 07:00:13;;;;;;;14.60;3.63;;;;;;;13.40;100.00;101027.59;6188673;23;20016;-84
2022/10/22 07:02:38;;;;;;;16.10;3.67;;;;;;;13.42;100.00;101035.56;6162065;23;20399;-84
2022/10/22 07:05:04;;;;;;;14.23;3.90;;;;;;;13.41;99.89;101033.81;6188127;23;20069;-83
2022/10/22 07:07:29;;;;;;;13.48;3.70;;;;;;;13.41;99.86;101040.00;6186635;23;20088;-83
2022/10/22 07:09:55;;;;;;;10.07;3.85;;;;;;;13.38;99.58;101026.72;6162209;23;20013;-83
2022/10/22 07:12:20;;;;;;;11.95;3.78;;;;;;;13.48;99.51;101049.72;6187770;23;20009;-83
2022/10/22 07:14:45;;;;;;;17.10;4.10;;;;;;;13.49;99.28;101051.53;6186221;23;20013;-84
2022/10/22 07:17:11;;;;;;;11.95;3.72;;;;;;;13.52;99.52;101051.50;6187810;23;20080;-83
2022/10/22 07:19:36;;;;;;;18.95;3.97;;;;;;;13.61;99.66;101052.41;6161434;23;20020;-84
2022/10/22 07:22:02;;;;;;;15.20;3.75;;;;;;;13.70;99.58;101057.72;6186972;23;20017;-83
2022/10/22 07:24:27;;;;;;;19.25;4.00;;;;;;;13.79;98.87;101063.09;6161947;23;20005;-83
2022/10/22 07:26:53;;;;;;;19.80;4.15;;;;;;;13.85;98.54;101063.06;6161781;23;20458;-83
2022/10/22 07:29:18;;;;;;;13.07;3.97;;;;;;;13.89;98.19;101069.28;6188337;23;20040;-83
2022/10/22 07:31:44;;;;;;;16.33;4.18;;;;;;;13.90;97.74;101069.28;6186437;23;20020;-83
2022/10/22 07:34:09;;;;;;;17.80;4.40;;;;;;;13.98;97.58;101078.13;6162210;23;20017;-84
2022/10/22 07:36:34;;;;;;;18.40;4.38;;;;;;;13.98;97.32;101064.84;6187358;23;20019;-83
2022/10/22 07:39:00;;;;;;;17.63;4.65;;;;;;;14.08;96.95;101079.00;6188435;23;20005;-83
2022/10/22 07:41:27;;;;;;;15.18;4.43;;;;;;;14.17;96.65;101075.47;6188681;23;20005;-83
2022/10/22 07:43:54;;;;;;;21.23;5.25;;;;;;;14.20;96.22;101086.97;6188785;23;20005;-83
2022/10/22 07:46:20;;;;;;;16.98;4.63;;;;;;;14.41;95.66;101087.88;6187968;23;20009;-83
2022/10/22 07:48:45;;;;;;;15.50;4.70;;;;;;;14.62;95.32;101084.31;6161779;23;20015;-83
2022/10/22 07:51:11;;;;;;;19.98;4.68;;;;;;;14.84;94.27;101099.34;6187667;23;20372;-83
2022/10/22 07:53:37;;;;;;;19.30;4.93;;;;;;;14.99;92.68;101088.66;6188434;23;20436;-84
2022/10/22 07:56:02;;;;;;;20.65;4.80;;;;;;;15.18;91.15;101092.13;6185745;23;20008;-83
2022/10/22 07:58:28;;;;;;;12.90;4.30;;;;;;;15.39;90.59;101093.81;6163074;23;20427;-83
2022/10/22 08:00:59;;;;;;;16.38;4.13;;;;;;;15.52;88.51;101087.53;6163415;23;20039;-84
2022/10/22 08:03:25;;;;;;;15.05;4.55;;;;;;;15.69;87.47;101100.78;6188565;23;20005;-84
2022/10/22 08:05:51;;;;;;;16.75;4.25;;;;;;;15.69;86.57;101099.88;6161656;23;20020;-84
2022/10/22 08:08:17;;;;;;;16.05;4.07;;;;;;;15.62;87.37;101100.78;6161292;23;20039;-84
2022/10/22 08:10:43;;;;;;;16.52;4.18;;;;;;;15.51;87.11;101108.84;6185807;23;20040;-84
2022/10/22 08:13:08;;;;;;;12.55;3.60;;;;;;;15.40;87.62;101108.88;6185910;23;20420;-84
2022/10/22 08:15:34;;;;;;;13.45;3.58;;;;;;;15.46;87.75;101114.19;6188037;23;20085;-84
2022/10/22 08:18:00;;;;;;;16.45;3.70;;;;;;;15.73;86.44;101106.97;6161449;23;20375;-84
2022/10/22 08:20:25;;;;;;;11.70;3.85;;;;;;;16.23;86.54;101111.94;6187133;23;20009;-84
2022/10/22 08:22:51;;;;;;;15.57;3.90;;;;;;;16.67;83.95;101117.75;6187928;23;20104;-84
2022/10/22 08:25:17;;;;;;;13.85;3.65;;;;;;;17.05;81.67;101114.72;6161142;23;20018;-84
2022/10/22 08:27:43;;;;;;;16.23;3.55;;;;;;;17.47;79.72;101112.38;6160966;23;20448;-84
2022/10/22 08:30:09;;;;;;;12.70;3.85;;;;;;;17.73;78.39;101125.41;6187423;23;20009;-84
2022/10/22 08:32:34;;;;;;;14.93;3.60;;;;;;;17.64;76.74;101122.84;6187265;23;20012;-84
2022/10/22 08:35:00;;;;;;;20.08;3.38;;;;;;;17.38;78.01;101142.78;6194809;23;20013;-84
2022/10/22 08:37:25;;;;;;;9.90;3.00;;;;;;;17.36;79.07;101141.94;6185934;23;20047;-84
2022/10/22 08:39:50;;;;;;;14.50;3.08;;;;;;;17.31;77.83;101142.91;6187262;23;20080;-84
2022/10/22 08:42:46;;;;;;;10.32;3.10;;;;;;;17.36;80.36;101154.41;6187186;23;20037;-84
2022/10/22 08:45:21;;;;;;;10.88;2.97;;;;;;;17.72;78.27;101139.66;6187929;23;20001;-85
2022/10/22 08:48:27;;;;;;;9.00;2.70;;;;;;;18.12;77.58;101163.22;6187161;23;20012;-84
2022/10/22 08:50:56;;;;;;;9.13;2.70;;;;;;;17.90;76.22;101157.25;6161297;23;20013;-84
2022/10/22 08:53:45;;;;;;;11.43;3.03;;;;;;;17.71;76.60;101160.16;6187244;23;20321;-84
2022/10/22 08:56:13;;;;;;;9.45;2.58;;;;;;;17.49;77.05;101161.38;6186611;23;20040;-84
2022/10/22 08:58:44;;;;;;;10.48;2.85;;;;;;;17.28;78.10;101173.19;6185564;23;20001;-84
2022/10/22 09:01:18;;;;;;;9.10;2.53;;;;;;;17.15;78.63;101179.56;6187336;23;20001;-83
2022/10/22 09:04:09;;;;;;;9.73;2.58;;;;;;;17.01;78.68;101175.28;6185821;23;20328;-84
2022/10/22 09:06:38;;;;;;;11.13;2.70;;;;;;;16.91;79.43;101175.38;6210371;23;20439;-83
2022/10/22 09:09:11;;;;;;;11.77;2.78;;;;;;;16.85;79.89;101175.44;6187102;23;20037;-83
2022/10/22 09:11:39;;;;;;;11.95;2.42;;;;;;;16.78;79.48;101180.81;6186477;23;20286;-85
2022/10/22 09:14:05;;;;;;;13.95;3.20;;;;;;;16.71;80.63;101181.75;6186951;23;20079;-84
2022/10/22 09:16:52;;;;;;;6.95;2.40;;;;;;;16.78;80.92;101195.94;6187350;23;20009;-83
2022/10/22 09:19:36;;;;;;;11.13;2.65;;;;;;;16.71;80.56;101192.44;6186437;23;20432;-84
2022/10/22 09:22:10;;;;;;;9.82;2.58;;;;;;;16.65;80.32;101199.59;6186596;23;20033;-83
2022/10/22 09:24:37;;;;;;;9.52;2.45;;;;;;;16.58;81.10;101197.91;6187261;23;20005;-86
2022/10/22 09:27:15;;;;;;;11.32;2.83;;;;;;;16.55;80.80;101209.47;6187114;23;20008;-84
2022/10/22 09:29:42;;;;;;;12.07;3.08;;;;;;;16.48;81.42;101208.63;6187060;23;20009;-84
2022/10/22 09:32:08;;;;;;;8.35;2.83;;;;;;;16.47;80.84;101205.97;6185563;23;20335;-84
2022/10/22 09:34:33;;;;;;;12.40;2.97;;;;;;;16.43;80.63;101213.09;6186293;23;20074;-83
2022/10/22 09:37:05;;;;;;;12.82;2.97;;;;;;;16.45;81.61;101213.13;6185901;23;20024;-84
2022/10/22 09:39:33;;;;;;;14.90;2.70;;;;;;;16.39;81.44;101208.69;6187690;23;20080;-84
2022/10/22 09:41:59;;;;;;;13.90;2.75;;;;;;;16.46;81.49;101225.56;6186603;23;20011;-83
2022/10/22 09:44:25;;;;;;;12.13;2.78;;;;;;;16.44;81.06;101230.88;6187104;23;20375;-83
2022/10/22 09:46:50;;;;;;;9.40;2.80;;;;;;;16.44;82.08;101222.00;6186677;23;20024;-84
2022/10/22 09:49:18;;;;;;;9.30;2.75;;;;;;;16.43;81.67;101225.56;6160571;23;20320;-83
2022/10/22 09:51:49;;;;;;;7.63;2.38;;;;;;;16.46;81.63;101229.09;6186240;23;20166;-84
2022/10/22 09:54:20;;;;;;;15.70;2.97;;;;;;;16.48;81.09;101245.97;6185018;23;20005;-83
2022/10/22 09:57:12;;;;;;;11.93;2.65;;;;;;;16.50;81.61;101236.19;6186554;23;20008;-83
2022/10/22 09:59:40;;;;;;;8.85;2.53;;;;;;;16.55;81.23;101246.81;6186584;23;20005;-84
2022/10/22 10:02:11;;;;;;;10.95;2.92;;;;;;;16.52;81.76;101237.03;6186491;23;20005;-84
2022/10/22 10:04:47;;;;;;;11.13;2.78;;;;;;;16.62;81.89;101247.69;6187219;23;20028;-83
2022/10/22 10:07:25;;;;;;;12.02;2.58;;;;;;;16.66;81.23;101258.31;6187270;23;20009;-83
2022/10/22 10:09:52;;;;;;;9.88;2.85;;;;;;;16.63;80.86;101263.66;6185229;23;20329;-84
2022/10/22 10:12:28;;;;;;;13.05;2.97;;;;;;;16.62;81.43;101263.69;6186431;23;20005;-84
2022/10/22 10:15:05;;;;;;;10.30;2.60;;;;;;;16.58;81.45;101267.25;6186496;23;20009;-83
2022/10/22 10:17:48;;;;;;;13.27;2.90;;;;;;;16.63;81.74;101276.13;6186418;23;20009;-83
2022/10/22 10:20:35;;;;;;;13.50;2.70;;;;;;;16.68;81.94;101275.19;6186446;23;20001;-84
2022/10/22 10:23:27;;;;;;;16.58;2.67;;;;;;;16.80;81.37;101276.03;6186399;23;20131;-83
2022/10/22 10:26:03;;;;;;;9.90;2.50;;;;;;;16.92;80.94;101283.94;6140199;23;20020;-84
2022/10/22 10:28:47;;;;;;;6.53;2.50;;;;;;;16.99;80.90;101282.97;6184852;23;20001;-83
2022/10/22 10:31:36;;;;;;;12.20;2.95;;;;;;;16.94;79.76;101287.47;6186511;23;20001;-83
2022/10/22 10:34:39;;;;;;;8.25;2.72;;;;;;;17.04;80.32;101286.47;6187310;23;20136;-83
2022/10/22 10:37:19;;;;;;;10.05;2.80;;;;;;;17.16;80.69;101289.03;6186532;23;20048;-83
2022/10/22 10:40:00;;;;;;;9.70;2.80;;;;;;;17.37;79.29;101290.63;6186861;23;20001;-84
2022/10/22 10:42:40;;;;;;;11.85;2.85;;;;;;;17.59;79.04;101290.38;6187422;23;20021;-84
2022/10/22 10:45:17;;;;;;;8.07;2.78;;;;;;;17.78;78.56;101289.31;6186237;23;20005;-84
2022/10/22 10:47:52;;;;;;;15.00;2.90;;;;;;;17.85;76.48;101300.81;6187663;23;20016;-84
2022/10/22 10:50:32;;;;;;;12.93;2.75;;;;;;;18.00;76.13;101288.16;6188352;23;20067;-84
2022/10/22 10:53:15;;;;;;;10.50;2.90;;;;;;;18.35;75.46;101300.16;6162147;23;20009;-84
2022/10/22 10:55:58;;;;;;;11.35;3.17;;;;;;;18.41;74.30;101307.22;6187185;23;20005;-85
2022/10/22 10:58:29;;;;;;;;;;;;;;;18.44;74.96;101297.34;6190113;23;20001;-84
2022/10/22 11:00:59;;;;;;;13.20;2.97;;;;;;;18.43;73.68;101292.91;6189298;23;20267;-84
2022/10/22 11:03:40;;;;;;;9.82;2.72;;;;;;;18.55;73.36;101286.50;6188020;23;20076;-84
2022/10/22 11:06:13;;;;;;;11.30;3.00;;;;;;;18.81;71.83;101294.16;6189464;23;20005;-85
2022/10/22 11:08:47;;;;;;;11.70;2.88;;;;;;;18.87;71.91;101293.16;6197611;23;20005;-85
2022/10/22 11:11:42;;;;;;;13.52;3.10;;;;;;;18.73;70.87;101298.75;6208651;23;20017;-84
2022/10/22 11:14:18;;;;;;;10.65;2.90;;;;;;;18.84;71.04;101298.56;6160286;23;20008;-85
2022/10/22 11:16:52;;;;;;;11.75;2.90;;;;;;;18.82;71.39;101301.28;6185323;23;19993;-84
2022/10/22 11:19:26;;;;;;;10.90;2.70;;;;;;;18.76;71.63;101301.38;6211495;23;20055;-84
2022/10/22 11:22:08;;;;;;;11.30;2.80;;;;;;;18.76;71.82;101290.69;6211196;23;20005;-84
2022/10/22 11:24:49;;;;;;;13.23;3.22;;;;;;;19.05;70.62;101303.56;6211431;23;20029;-83
2022/10/22 11:27:21;;;;;;;13.40;2.85;;;;;;;19.33;70.35;101301.31;6198441;23;20005;-84
2022/10/22 11:29:54;;;;;;;17.88;3.60;;;;;;;19.29;69.07;101296.03;6193635;23;20012;-84